createdAt,value
2018-09-26T00:00:02.924Z,12.95
2018-09-26T00:02:36.327Z,12.96
2018-09-26T00:05:13.244Z,12.96
2018-09-26T00:07:47.899Z,12.97
2018-09-26T00:10:20.148Z,13.01
2018-09-26T00:12:54.985Z,13.00
2018-09-26T00:15:25.241Z,12.97
2018-09-26T00:17:57.333Z,12.93
2018-09-26T00:23:31.651Z,12.74
2018-09-26T00:26:02.991Z,12.67
2018-09-26T00:28:35.056Z,12.62
2018-09-26T00:31:06.562Z,12.61
2018-09-26T00:33:37.832Z,12.58
2018-09-26T00:36:12.369Z,12.58
2018-09-26T00:38:44.739Z,12.56
2018-09-26T00:41:16.927Z,12.52
2018-09-26T00:43:47.548Z,12.49
2018-09-26T00:46:20.291Z,12.46
2018-09-26T00:48:53.070Z,12.42
2018-09-26T00:51:25.854Z,12.37
2018-09-26T00:54:02.710Z,12.32
2018-09-26T00:56:35.682Z,12.28
2018-09-26T00:59:10.294Z,12.25
2018-09-26T01:01:44.408Z,12.19
2018-09-26T01:04:16.717Z,12.16
2018-09-26T01:06:49.736Z,12.11
2018-09-26T01:09:22.226Z,12.07
2018-09-26T01:11:58.793Z,12.04
2018-09-26T01:14:28.014Z,12.01
2018-09-26T01:16:58.735Z,11.94
2018-09-26T01:19:30.205Z,11.93
2018-09-26T01:22:00.683Z,11.90
2018-09-26T01:24:34.323Z,11.84
2018-09-26T01:27:09.049Z,11.80
2018-09-26T01:29:41.571Z,11.78
2018-09-26T01:32:15.364Z,11.74
2018-09-26T01:34:47.097Z,11.73
2018-09-26T01:37:19.533Z,11.70
2018-09-26T01:39:53.971Z,11.69
2018-09-26T01:42:27.416Z,11.66
2018-09-26T01:44:59.329Z,11.65
2018-09-26T01:47:33.977Z,11.63
2018-09-26T01:50:09.397Z,11.61
2018-09-26T01:52:38.659Z,11.58
2018-09-26T01:55:15.198Z,11.54
2018-09-26T01:57:47.253Z,11.52
2018-09-26T02:00:20.756Z,11.49
2018-09-26T02:02:54.126Z,11.44
2018-09-26T02:05:28.547Z,11.41
2018-09-26T02:07:58.841Z,11.36
2018-09-26T02:10:30.929Z,11.30
2018-09-26T02:13:00.703Z,11.27
2018-09-26T02:15:31.688Z,11.25
2018-09-26T02:18:02.867Z,11.21
2018-09-26T02:20:32.229Z,11.16
2018-09-26T02:23:12.288Z,11.15
2018-09-26T02:25:43.303Z,11.10
2018-09-26T02:28:17.145Z,11.06
2018-09-26T02:30:49.345Z,11.02
2018-09-26T02:33:25.382Z,10.98
2018-09-26T02:35:59.684Z,10.95
2018-09-26T02:38:29.855Z,10.93
2018-09-26T02:40:59.142Z,10.91
2018-09-26T02:43:32.671Z,10.87
2018-09-26T02:46:07.474Z,10.85
2018-09-26T02:48:45.679Z,10.84
2018-09-26T02:51:19.477Z,10.82
2018-09-26T02:53:50.702Z,10.81
2018-09-26T02:56:24.697Z,10.79
2018-09-26T02:58:58.683Z,10.75
2018-09-26T03:01:29.834Z,10.72
2018-09-26T03:04:00.383Z,10.67
2018-09-26T03:06:32.069Z,10.64
2018-09-26T03:09:05.300Z,10.64
2018-09-26T03:11:41.425Z,10.63
2018-09-26T03:14:13.888Z,10.59
2018-09-26T03:16:49.164Z,10.59
2018-09-26T03:19:23.815Z,10.58
2018-09-26T03:21:57.431Z,10.56
2018-09-26T03:24:28.759Z,10.55
2018-09-26T03:26:59.863Z,10.56
2018-09-26T03:29:33.210Z,10.57
2018-09-26T03:32:03.131Z,10.58
2018-09-26T03:34:33.156Z,10.59
2018-09-26T03:37:03.315Z,10.58
2018-09-26T03:39:32.674Z,10.55
2018-09-26T03:42:02.276Z,10.53
2018-09-26T03:44:31.601Z,10.48
2018-09-26T03:47:00.654Z,10.48
2018-09-26T03:49:29.989Z,10.47
2018-09-26T03:51:59.264Z,10.49
2018-09-26T03:54:28.592Z,10.48
2018-09-26T03:56:58.569Z,10.50
2018-09-26T03:59:27.590Z,10.49
2018-09-26T04:01:56.938Z,10.50
2018-09-26T04:04:26.055Z,10.49
2018-09-26T04:06:55.146Z,10.49
2018-09-26T04:09:24.241Z,10.49
2018-09-26T04:11:53.294Z,10.49
2018-09-26T04:14:22.905Z,10.48
2018-09-26T04:16:52.849Z,10.48
2018-09-26T04:19:21.904Z,10.49
2018-09-26T04:21:51.065Z,10.46
2018-09-26T04:24:21.526Z,10.44
2018-09-26T04:26:51.012Z,10.43
2018-09-26T04:29:20.211Z,10.41
2018-09-26T04:31:49.997Z,10.41
2018-09-26T04:34:19.361Z,10.40
2018-09-26T04:36:48.909Z,10.40
2018-09-26T04:39:18.680Z,10.40
2018-09-26T04:41:48.078Z,10.40
2018-09-26T04:44:17.485Z,10.41
2018-09-26T04:46:47.227Z,10.45
2018-09-26T04:49:16.918Z,10.47
2018-09-26T04:51:46.863Z,10.48
2018-09-26T04:54:16.698Z,10.50
2018-09-26T04:56:46.152Z,10.49
2018-09-26T04:59:15.857Z,10.48
2018-09-26T05:01:46.123Z,10.47
2018-09-26T05:04:15.553Z,10.46
2018-09-26T05:06:45.151Z,10.45
2018-09-26T05:09:14.688Z,10.45
2018-09-26T05:11:44.316Z,10.46
2018-09-26T05:14:13.757Z,10.49
2018-09-26T05:16:43.441Z,10.51
2018-09-26T05:19:13.023Z,10.50
2018-09-26T05:21:43.544Z,10.52
2018-09-26T05:24:12.835Z,10.53
2018-09-26T05:26:42.985Z,10.53
2018-09-26T05:29:12.456Z,10.56
2018-09-26T05:31:41.864Z,10.56
2018-09-26T05:34:12.093Z,10.61
2018-09-26T05:36:42.765Z,10.66
2018-09-26T05:39:12.975Z,10.67
2018-09-26T05:41:42.853Z,10.66
2018-09-26T05:44:12.671Z,10.65
2018-09-26T05:46:42.402Z,10.62
2018-09-26T05:49:12.339Z,10.62
2018-09-26T05:51:42.258Z,10.62
2018-09-26T05:54:12.551Z,10.63
2018-09-26T05:56:42.176Z,10.63
2018-09-26T05:59:11.622Z,10.64
2018-09-26T06:01:41.438Z,10.65
2018-09-26T06:04:11.365Z,10.68
2018-09-26T06:06:40.983Z,10.74
2018-09-26T06:09:12.526Z,10.77
2018-09-26T06:11:42.634Z,10.79
2018-09-26T06:14:12.908Z,10.83
2018-09-26T06:16:42.337Z,10.89
2018-09-26T06:19:12.574Z,10.97
2018-09-26T06:21:42.649Z,11.05
2018-09-26T06:24:12.658Z,11.15
2018-09-26T06:26:42.689Z,11.26
2018-09-26T06:29:13.143Z,11.40
2018-09-26T06:31:42.572Z,11.55
2018-09-26T06:34:12.227Z,11.69
2018-09-26T06:36:41.543Z,11.80
2018-09-26T06:39:12.525Z,11.89
2018-09-26T06:41:42.501Z,11.98
2018-09-26T06:44:12.297Z,12.08
2018-09-26T06:46:41.882Z,12.21
2018-09-26T06:49:12.128Z,12.33
2018-09-26T06:51:42.221Z,12.47
2018-09-26T06:54:11.859Z,12.61
2018-09-26T06:56:41.556Z,12.77
2018-09-26T06:59:11.372Z,12.93
2018-09-26T07:04:41.785Z,13.27
2018-09-26T07:07:11.582Z,13.48
2018-09-26T07:09:40.990Z,13.68
2018-09-26T07:12:11.087Z,13.87
2018-09-26T07:14:41.653Z,14.03
2018-09-26T07:17:11.385Z,14.15
2018-09-26T07:19:40.736Z,14.22
2018-09-26T07:22:10.189Z,14.25
2018-09-26T07:24:39.477Z,14.31
2018-09-26T07:27:08.914Z,14.43
2018-09-26T07:29:38.163Z,14.63
2018-09-26T07:32:07.748Z,14.83
2018-09-26T07:34:39.700Z,15.06
2018-09-26T07:37:09.556Z,15.36
2018-09-26T07:39:40.293Z,15.68
2018-09-26T07:42:15.750Z,16.01
2018-09-26T07:44:45.628Z,16.35
2018-09-26T07:47:15.361Z,16.67
2018-09-26T07:49:45.435Z,17.05
2018-09-26T07:52:15.258Z,17.54
2018-09-26T07:54:44.979Z,18.25
2018-09-26T07:57:14.190Z,19.06
2018-09-26T07:59:44.657Z,19.88
2018-09-26T08:02:14.209Z,20.74
2018-09-26T08:04:44.107Z,21.47
2018-09-26T08:07:14.142Z,21.99
2018-09-26T08:09:43.774Z,22.44
2018-09-26T08:12:13.449Z,22.82
2018-09-26T08:14:43.018Z,23.15
2018-09-26T08:17:12.544Z,23.45
2018-09-26T08:19:41.892Z,23.65
2018-09-26T08:22:11.367Z,23.82
2018-09-26T08:24:40.725Z,23.92
2018-09-26T08:27:10.143Z,24.04
2018-09-26T08:29:39.486Z,24.15
2018-09-26T08:32:09.518Z,24.28
2018-09-26T08:34:38.975Z,24.44
2018-09-26T08:37:08.568Z,24.65
2018-09-26T08:39:37.795Z,24.93
2018-09-26T08:42:07.185Z,25.13
2018-09-26T08:44:36.678Z,25.29
2018-09-26T08:47:06.246Z,25.31
2018-09-26T08:49:35.482Z,25.27
2018-09-26T08:52:04.757Z,25.07
2018-09-26T08:54:34.049Z,24.84
2018-09-26T08:57:03.212Z,24.52
2018-09-26T08:59:32.789Z,24.29
2018-09-26T09:02:02.097Z,24.19
2018-09-26T09:04:31.587Z,24.28
2018-09-26T09:07:00.894Z,24.58
2018-09-26T09:09:30.147Z,24.97
2018-09-26T09:11:59.721Z,25.34
2018-09-26T09:14:29.379Z,25.75
2018-09-26T09:16:58.695Z,26.11
2018-09-26T09:19:28.119Z,26.45
2018-09-26T09:21:57.516Z,26.81
2018-09-26T09:24:26.826Z,27.14
2018-09-26T09:26:56.235Z,27.49
2018-09-26T09:29:25.745Z,27.88
2018-09-26T09:31:55.451Z,28.22
2018-09-26T09:34:24.756Z,28.68
2018-09-26T09:36:53.974Z,29.11
2018-09-26T09:39:23.247Z,29.40
2018-09-26T09:41:53.005Z,29.65
2018-09-26T09:44:23.230Z,29.85
2018-09-26T09:46:53.061Z,29.89
2018-09-26T09:49:22.490Z,29.94
2018-09-26T09:51:51.945Z,30.05
2018-09-26T09:54:21.097Z,30.12
2018-09-26T09:56:50.548Z,30.30
2018-09-26T09:59:20.073Z,30.50
2018-09-26T10:01:49.581Z,30.65
2018-09-26T10:04:19.922Z,30.74
2018-09-26T10:06:50.371Z,30.89
2018-09-26T10:09:21.012Z,31.12
2018-09-26T10:11:50.878Z,31.29
2018-09-26T10:14:20.708Z,31.39
2018-09-26T10:16:50.338Z,31.54
2018-09-26T10:19:19.836Z,31.68
2018-09-26T10:21:49.713Z,31.78
2018-09-26T10:24:20.508Z,31.87
2018-09-26T10:26:50.156Z,32.01
2018-09-26T10:29:19.809Z,32.20
2018-09-26T10:31:49.671Z,32.46
2018-09-26T10:34:20.026Z,32.65
2018-09-26T10:36:50.246Z,32.87
2018-09-26T10:39:20.086Z,33.04
2018-09-26T10:46:46.714Z,32.15
2018-09-26T10:49:16.697Z,31.78
2018-09-26T10:51:46.503Z,31.34
2018-09-26T10:54:16.056Z,30.93
2018-09-26T10:56:45.440Z,30.67
2018-09-26T10:59:16.042Z,30.49
2018-09-26T11:01:46.824Z,30.34
2018-09-26T11:04:16.482Z,30.17
2018-09-26T11:06:46.314Z,29.84
2018-09-26T11:09:15.767Z,29.41
2018-09-26T11:11:45.490Z,28.97
2018-09-26T11:14:15.259Z,28.50
2018-09-26T11:16:45.066Z,28.08
2018-09-26T11:19:14.694Z,27.75
2018-09-26T11:21:45.912Z,27.51
2018-09-26T11:24:15.260Z,27.29
2018-09-26T11:26:44.964Z,27.07
2018-09-26T11:29:14.869Z,26.92
2018-09-26T11:31:44.855Z,26.79
2018-09-26T11:34:14.655Z,26.60
2018-09-26T11:36:44.472Z,26.37
2018-09-26T11:39:15.465Z,26.24
2018-09-26T11:41:45.440Z,26.22
2018-09-26T11:44:14.979Z,26.28
2018-09-26T11:46:44.855Z,26.33
2018-09-26T11:49:15.860Z,26.31
2018-09-26T11:51:45.773Z,26.30
2018-09-26T11:54:16.668Z,26.31
2018-09-26T11:56:47.326Z,26.22
2018-09-26T11:59:17.022Z,26.11
2018-09-26T12:01:46.845Z,25.96
2018-09-26T12:04:16.987Z,25.82
2018-09-26T12:06:46.852Z,25.72
2018-09-26T12:09:16.535Z,25.57
2018-09-26T12:11:46.451Z,25.41
2018-09-26T12:14:16.267Z,25.23
2018-09-26T12:16:46.693Z,25.10
2018-09-26T12:19:16.379Z,25.06
2018-09-26T12:21:46.107Z,25.08
2018-09-26T12:24:16.234Z,25.14
2018-09-26T12:26:45.906Z,25.25
2018-09-26T12:29:15.542Z,25.37
2018-09-26T12:31:45.317Z,25.48
2018-09-26T12:34:15.046Z,25.50
2018-09-26T12:36:44.914Z,25.50
2018-09-26T12:39:14.875Z,25.52
2018-09-26T12:41:44.936Z,25.59
2018-09-26T12:44:14.988Z,25.68
2018-09-26T12:46:45.532Z,25.74
2018-09-26T12:49:15.397Z,25.78
2018-09-26T12:51:44.848Z,25.69
2018-09-26T12:54:14.611Z,25.59
2018-09-26T12:56:44.398Z,25.45
2018-09-26T12:59:14.476Z,25.35
2018-09-26T13:01:44.492Z,25.34
2018-09-26T13:04:14.098Z,25.36
2018-09-26T13:06:44.094Z,25.40
2018-09-26T13:09:13.997Z,25.43
2018-09-26T13:11:44.063Z,25.43
2018-09-26T13:14:13.775Z,25.47
2018-09-26T13:16:43.359Z,25.52
2018-09-26T13:19:14.025Z,25.53
2018-09-26T13:21:43.616Z,25.52
2018-09-26T13:24:13.267Z,25.50
2018-09-26T13:26:42.829Z,25.50
2018-09-26T13:29:12.361Z,25.51
2018-09-26T13:31:42.383Z,25.53
2018-09-26T13:34:12.411Z,25.57
2018-09-26T13:36:42.429Z,25.58
2018-09-26T13:39:12.553Z,25.59
2018-09-26T13:41:42.835Z,25.56
2018-09-26T13:44:12.525Z,25.52
2018-09-26T13:46:42.284Z,25.46
2018-09-26T13:49:12.803Z,25.35
2018-09-26T13:51:42.376Z,25.31
2018-09-26T13:54:12.333Z,25.26
2018-09-26T13:56:42.511Z,25.23
2018-09-26T13:59:12.273Z,25.18
2018-09-26T14:01:42.222Z,25.16
2018-09-26T14:04:11.912Z,25.13
2018-09-26T14:06:42.640Z,25.09
2018-09-26T14:09:13.243Z,25.10
2018-09-26T14:11:43.073Z,25.04
2018-09-26T14:14:12.615Z,24.97
2018-09-26T14:16:42.561Z,24.90
2018-09-26T14:19:12.197Z,24.86
2018-09-26T14:21:42.581Z,24.86
2018-09-26T14:24:12.356Z,24.84
2018-09-26T14:26:42.131Z,24.85
2018-09-26T14:29:11.985Z,24.86
2018-09-26T14:31:41.860Z,24.89
2018-09-26T14:34:11.522Z,24.90
2018-09-26T14:36:41.115Z,24.91
2018-09-26T14:39:11.675Z,24.92
2018-09-26T14:41:41.498Z,24.90
2018-09-26T14:44:12.047Z,24.88
2018-09-26T14:46:42.122Z,24.87
2018-09-26T14:49:11.846Z,24.86
2018-09-26T14:51:42.237Z,24.84
2018-09-26T14:54:12.006Z,24.81
2018-09-26T14:56:41.980Z,24.80
2018-09-26T14:59:11.936Z,24.79
2018-09-26T15:01:43.188Z,24.74
2018-09-26T15:04:12.977Z,24.68
2018-09-26T15:06:44.198Z,24.66
2018-09-26T15:09:14.025Z,24.59
2018-09-26T15:11:44.615Z,24.55
2018-09-26T15:14:14.331Z,24.51
2018-09-26T15:16:44.562Z,24.48
2018-09-26T15:19:15.459Z,24.44
2018-09-26T15:21:45.202Z,24.38
2018-09-26T15:24:15.213Z,24.35
2018-09-26T15:26:45.077Z,24.31
2018-09-26T15:29:15.254Z,24.26
2018-09-26T15:31:44.970Z,24.22
2018-09-26T15:34:15.640Z,24.17
2018-09-26T15:36:45.622Z,24.13
2018-09-26T15:39:20.096Z,24.09
2018-09-26T15:41:50.357Z,24.05
2018-09-26T15:44:20.446Z,23.99
2018-09-26T15:46:50.794Z,23.96
2018-09-26T15:49:20.864Z,23.91
2018-09-26T15:51:50.427Z,23.87
2018-09-26T15:54:22.618Z,23.83
2018-09-26T15:56:53.709Z,23.77
2018-09-26T15:59:23.425Z,23.71
2018-09-26T16:01:53.082Z,23.66
2018-09-26T16:04:26.617Z,23.62
2018-09-26T16:07:11.783Z,23.56
2018-09-26T16:09:42.943Z,23.47
2018-09-26T16:12:13.838Z,23.40
2018-09-26T16:14:45.878Z,23.36
2018-09-26T16:17:15.986Z,23.30
2018-09-26T16:19:46.265Z,23.26
2018-09-26T16:22:16.196Z,23.22
2018-09-26T16:24:45.868Z,23.19
2018-09-26T16:27:15.447Z,23.13
2018-09-26T16:29:45.296Z,23.06
2018-09-26T16:32:15.109Z,23.02
2018-09-26T16:34:45.919Z,22.95
2018-09-26T16:37:16.177Z,22.88
2018-09-26T16:39:48.830Z,22.79
2018-09-26T16:42:18.601Z,22.73
2018-09-26T16:44:52.251Z,22.64
2018-09-26T16:47:22.351Z,22.54
2018-09-26T16:49:53.032Z,22.46
2018-09-26T16:52:23.945Z,22.34
2018-09-26T16:54:55.745Z,22.26
2018-09-26T16:57:25.281Z,22.14
2018-09-26T16:59:54.964Z,22.05
2018-09-26T17:02:24.824Z,21.95
2018-09-26T17:04:54.068Z,21.85
2018-09-26T17:07:23.326Z,21.75
2018-09-26T17:09:53.154Z,21.66
2018-09-26T17:12:22.943Z,21.55
2018-09-26T17:14:52.746Z,21.46
2018-09-26T17:17:22.694Z,21.35
2018-09-26T17:19:54.767Z,21.24
2018-09-26T17:22:24.579Z,21.13
2018-09-26T17:24:53.956Z,21.07
2018-09-26T17:27:23.640Z,20.97
2018-09-26T17:29:54.381Z,20.86
2018-09-26T17:32:23.909Z,20.74
2018-09-26T17:34:53.927Z,20.64
2018-09-26T17:37:23.508Z,20.50
2018-09-26T17:39:53.141Z,20.41
2018-09-26T17:42:25.145Z,20.30
2018-09-26T17:44:54.773Z,20.19
2018-09-26T17:47:24.297Z,20.11
2018-09-26T17:49:54.141Z,20.02
2018-09-26T17:52:23.646Z,19.93
2018-09-26T17:54:53.425Z,19.83
2018-09-26T17:57:23.009Z,19.74
2018-09-26T18:04:50.931Z,19.16
2018-09-26T18:07:21.080Z,19.09
2018-09-26T18:09:50.815Z,19.02
2018-09-26T18:12:20.730Z,18.97
2018-09-26T18:14:51.046Z,18.89
2018-09-26T18:17:20.666Z,18.81
2018-09-26T18:19:50.456Z,18.74
2018-09-26T18:22:22.073Z,18.67
2018-09-26T18:24:51.778Z,18.61
2018-09-26T18:27:21.596Z,18.54
2018-09-26T18:29:51.455Z,18.47
2018-09-26T18:32:21.808Z,18.38
2018-09-26T18:34:51.278Z,18.29
2018-09-26T18:37:20.785Z,18.19
2018-09-26T18:39:50.120Z,18.10
2018-09-26T18:42:21.261Z,18.02
2018-09-26T18:44:55.415Z,17.94
2018-09-26T18:47:25.457Z,17.88
2018-09-26T18:50:27.633Z,17.81
2018-09-26T18:52:58.567Z,17.68
2018-09-26T18:55:31.592Z,17.62
2018-09-26T18:58:17.869Z,17.57
2018-09-26T19:01:03.691Z,17.52
2018-09-26T19:06:20.679Z,17.41
2018-09-26T19:08:51.419Z,17.38
2018-09-26T19:11:22.433Z,17.33
2018-09-26T19:14:03.202Z,17.28
2018-09-26T19:16:36.493Z,17.23
2018-09-26T19:19:12.344Z,17.19
2018-09-26T19:21:57.072Z,17.12
2018-09-26T19:24:33.516Z,17.04
2018-09-26T19:27:05.828Z,16.98
2018-09-26T19:29:38.220Z,16.89
2018-09-26T19:32:09.071Z,16.84
2018-09-26T19:34:39.722Z,16.78
2018-09-26T19:37:11.368Z,16.71
2018-09-26T19:39:45.831Z,16.66
2018-09-26T19:42:16.124Z,16.59
2018-09-26T19:44:47.146Z,16.55
2018-09-26T19:47:17.537Z,16.50
2018-09-26T19:49:49.068Z,16.47
2018-09-26T19:52:19.817Z,16.45
2018-09-26T19:54:51.736Z,16.40
2018-09-26T19:57:27.364Z,16.35
2018-09-26T19:59:58.582Z,16.29
2018-09-26T20:02:28.723Z,16.24
2018-09-26T20:04:58.712Z,16.20
2018-09-26T20:07:29.230Z,16.13
2018-09-26T20:10:05.274Z,16.09
2018-09-26T20:12:36.715Z,16.02
2018-09-26T20:15:11.064Z,15.97
2018-09-26T20:17:41.355Z,15.92
2018-09-26T20:20:10.828Z,15.84
2018-09-26T20:22:40.638Z,15.81
2018-09-26T20:25:10.507Z,15.77
2018-09-26T20:27:39.829Z,15.75
2018-09-26T20:30:09.771Z,15.73
2018-09-26T20:32:39.711Z,15.71
2018-09-26T20:35:09.957Z,15.67
2018-09-26T20:37:42.326Z,15.65
2018-09-26T20:40:12.674Z,15.62
2018-09-26T20:42:42.291Z,15.61
2018-09-26T20:45:11.773Z,15.57
2018-09-26T20:47:43.793Z,15.51
2018-09-26T20:50:14.460Z,15.47
2018-09-26T20:52:45.144Z,15.45
2018-09-26T20:55:16.225Z,15.41
2018-09-26T20:57:45.577Z,15.40
2018-09-26T21:00:16.752Z,15.36
2018-09-26T21:02:47.080Z,15.32
2018-09-26T21:05:19.121Z,15.30
2018-09-26T21:07:49.689Z,15.29
2018-09-26T21:10:33.274Z,15.24
2018-09-26T21:13:11.147Z,15.19
2018-09-26T21:15:43.820Z,15.17
2018-09-26T21:18:15.327Z,15.15
2018-09-26T21:20:44.890Z,15.13
2018-09-26T21:23:14.836Z,15.12
2018-09-26T21:25:44.445Z,15.07
2018-09-26T21:28:14.257Z,15.05
2018-09-26T21:30:43.973Z,15.00
2018-09-26T21:33:13.285Z,14.94
2018-09-26T21:35:42.917Z,14.87
2018-09-26T21:38:12.341Z,14.84
2018-09-26T21:40:42.312Z,14.84
2018-09-26T21:43:12.544Z,14.80
2018-09-26T21:45:41.871Z,14.77
2018-09-26T21:48:11.693Z,14.74
2018-09-26T21:50:41.198Z,14.70
2018-09-26T21:53:10.840Z,14.67
2018-09-26T21:55:40.860Z,14.63
2018-09-26T21:58:10.180Z,14.59
2018-09-26T22:00:43.858Z,14.57
2018-09-26T22:03:13.224Z,14.55
2018-09-26T22:05:43.370Z,14.54
2018-09-26T22:08:12.866Z,14.54
2018-09-26T22:10:42.313Z,14.54
2018-09-26T22:13:11.945Z,14.51
2018-09-26T22:15:41.306Z,14.49
2018-09-26T22:18:10.555Z,14.47
2018-09-26T22:20:39.852Z,14.47
2018-09-26T22:23:09.589Z,14.44
2018-09-26T22:25:38.862Z,14.43
2018-09-26T22:28:08.587Z,14.41
2018-09-26T22:30:37.825Z,14.38
2018-09-26T22:33:07.015Z,14.36
2018-09-26T22:35:36.241Z,14.35
2018-09-26T22:38:05.889Z,14.34
2018-09-26T22:40:35.224Z,14.32
2018-09-26T22:43:04.460Z,14.31
2018-09-26T22:45:34.362Z,14.29
2018-09-26T22:48:03.900Z,14.29
2018-09-26T22:50:33.250Z,14.30
2018-09-26T22:53:02.563Z,14.30
2018-09-26T22:55:31.725Z,14.28
2018-09-26T22:58:00.934Z,14.28
2018-09-26T23:00:30.109Z,14.26
2018-09-26T23:02:59.305Z,14.22
2018-09-26T23:05:28.817Z,14.21
2018-09-26T23:07:57.857Z,14.18
2018-09-26T23:10:27.084Z,14.16
2018-09-26T23:12:56.273Z,14.13
2018-09-26T23:15:25.497Z,14.11
2018-09-26T23:17:54.718Z,14.08
2018-09-26T23:20:24.024Z,14.03
2018-09-26T23:22:53.062Z,14.02
2018-09-26T23:25:22.220Z,13.97
2018-09-26T23:27:51.256Z,13.92
2018-09-26T23:30:20.487Z,13.88
2018-09-26T23:32:50.023Z,13.87
2018-09-26T23:35:19.234Z,13.87
2018-09-26T23:37:48.400Z,13.82
2018-09-26T23:40:17.592Z,13.82
2018-09-26T23:42:47.131Z,13.79
2018-09-26T23:45:16.539Z,13.79
2018-09-26T23:47:46.680Z,13.76
2018-09-26T23:50:16.495Z,13.77
2018-09-26T23:52:45.800Z,13.73
2018-09-26T23:55:15.003Z,13.72
2018-09-26T23:57:44.712Z,13.71
